Time;durP1;ratioP1;P1;durP2;ratioP2;P2;SDS_P1;SDS_P2;PMS_P1;PMS_P2;Temp;Humidity;BMP_temperature;BMP_pressure;BME280_temperature;BME280_humidity;BME280_pressure;Samples;Min_cycle;Max_cycle;Signal;HPM_P1;HPM_P2
2024/03/14 00:02:09;;;;;;;4.30;3.90;;;9.40;99.90;;;;;;5025614;28;20257;-75
2024/03/14 00:04:36;;;;;;;4.20;3.83;;;9.40;99.90;;;;;;5055349;28;20585;-77
2024/03/14 00:07:03;;;;;;;3.88;3.58;;;9.40;99.90;;;;;;5028285;28;20292;-76
2024/03/14 00:09:30;;;;;;;3.78;3.47;;;9.30;99.90;;;;;;5024413;28;20254;-77
2024/03/14 00:11:57;;;;;;;3.72;3.42;;;9.50;99.90;;;;;;5021504;28;20251;-76
2024/03/14 00:14:24;;;;;;;3.53;3.10;;;9.50;99.90;;;;;;5024020;28;20219;-77
2024/03/14 00:16:52;;;;;;;3.70;3.22;;;9.50;99.90;;;;;;5027990;28;20298;-78
2024/03/14 00:19:19;;;;;;;4.05;3.63;;;9.40;99.90;;;;;;5042902;28;20591;-77
2024/03/14 00:21:46;;;;;;;4.32;3.92;;;9.40;99.90;;;;;;5019351;28;20226;-77
2024/03/14 00:24:14;;;;;;;3.90;3.60;;;9.30;99.90;;;;;;5024786;28;20751;-78
2024/03/14 00:26:41;;;;;;;3.58;3.28;;;9.20;99.90;;;;;;5037055;28;20241;-75
2024/03/14 00:29:08;;;;;;;4.00;3.70;;;9.10;99.90;;;;;;5020492;28;20820;-76
2024/03/14 00:31:38;;;;;;;4.20;3.83;;;9.10;99.90;;;;;;5037275;28;20250;-76
2024/03/14 00:34:07;;;;;;;3.85;3.55;;;9.10;99.90;;;;;;5020589;28;20202;-76
2024/03/14 00:36:37;;;;;;;3.80;3.28;;;9.00;99.90;;;;;;5021299;28;21937;-76
2024/03/14 00:39:06;;;;;;;3.50;3.20;;;9.00;99.90;;;;;;5021700;28;20206;-76
2024/03/14 00:41:33;;;;;;;3.80;3.50;;;9.00;99.90;;;;;;5023457;28;20229;-76
2024/03/14 00:44:01;;;;;;;3.50;3.20;;;9.00;99.90;;;;;;5021846;28;20281;-77
2024/03/14 00:46:28;;;;;;;2.85;2.65;;;9.00;99.90;;;;;;5038142;28;20923;-76
2024/03/14 00:48:55;;;;;;;3.95;2.88;;;9.00;99.90;;;;;;5024682;28;20288;-76
2024/03/14 00:51:22;;;;;;;3.58;3.28;;;9.00;99.90;;;;;;5036834;28;20292;-77
2024/03/14 00:53:51;;;;;;;3.13;2.83;;;8.90;99.90;;;;;;5022799;28;20207;-77
2024/03/14 00:56:18;;;;;;;3.42;3.13;;;8.90;99.90;;;;;;5022269;28;20694;-77
2024/03/14 00:58:44;;;;;;;3.50;3.20;;;8.90;99.90;;;;;;5020175;28;20207;-75
2024/03/14 01:01:25;;;;;;;3.38;2.83;;;8.80;99.90;;;;;;5038659;28;20250;-77
2024/03/14 01:03:52;;;;;;;3.85;3.53;;;8.70;99.90;;;;;;5024571;28;20257;-75
2024/03/14 01:06:19;;;;;;;3.67;3.33;;;8.70;99.90;;;;;;5054960;28;20312;-77
2024/03/14 01:08:46;;;;;;;2.95;2.75;;;8.60;99.90;;;;;;5037281;28;20218;-75
2024/03/14 01:11:14;;;;;;;2.90;2.67;;;8.60;99.90;;;;;;5039110;28;20729;-76
2024/03/14 01:13:41;;;;;;;3.22;2.92;;;8.60;99.90;;;;;;5022004;28;20207;-75
2024/03/14 01:16:08;;;;;;;5.35;3.17;;;8.50;99.90;;;;;;5019447;28;20219;-77
2024/03/14 01:18:35;;;;;;;3.47;3.03;;;8.50;99.90;;;;;;5035011;28;20238;-76
2024/03/14 01:21:02;;;;;;;3.28;3.08;;;8.60;99.90;;;;;;5022040;28;20255;-78
2024/03/14 01:23:29;;;;;;;3.50;3.20;;;8.50;99.90;;;;;;5054628;28;20230;-75
2024/03/14 01:25:56;;;;;;;2.80;2.60;;;8.50;99.90;;;;;;5021671;28;20280;-76
2024/03/14 01:28:23;;;;;;;3.10;2.90;;;8.60;99.90;;;;;;5019549;28;20266;-76
2024/03/14 01:30:51;;;;;;;2.75;2.55;;;8.50;99.90;;;;;;5022835;28;20254;-75
2024/03/14 01:33:18;;;;;;;2.90;2.70;;;8.50;99.90;;;;;;5034499;28;20215;-76
2024/03/14 01:35:45;;;;;;;3.25;3.00;;;8.50;99.90;;;;;;5040045;28;20311;-76
2024/03/14 01:38:12;;;;;;;2.80;2.60;;;8.50;99.90;;;;;;5037090;28;20224;-76
2024/03/14 01:40:40;;;;;;;2.75;2.55;;;8.50;99.90;;;;;;5025999;28;20483;-76
2024/03/14 01:43:07;;;;;;;2.65;2.45;;;8.50;99.90;;;;;;5038498;28;20231;-77
2024/03/14 01:45:35;;;;;;;3.70;2.70;;;8.40;99.90;;;;;;5019784;28;20306;-76
2024/03/14 01:48:02;;;;;;;2.42;2.22;;;8.40;99.90;;;;;;5047592;28;20222;-75
2024/03/14 01:50:29;;;;;;;2.60;2.40;;;8.40;99.90;;;;;;5038120;28;20330;-76
2024/03/14 01:52:59;;;;;;;2.22;2.13;;;8.40;99.90;;;;;;5021905;28;20227;-75
2024/03/14 01:55:26;;;;;;;2.60;2.40;;;8.40;99.90;;;;;;5015686;28;20309;-76
2024/03/14 01:57:53;;;;;;;3.00;2.80;;;8.40;99.90;;;;;;5022411;28;20226;-75
2024/03/14 02:00:22;;;;;;;3.13;2.92;;;8.30;99.90;;;;;;5022792;28;20247;-76
2024/03/14 02:02:50;;;;;;;3.38;3.08;;;8.30;99.90;;;;;;5038255;28;20215;-77
2024/03/14 02:05:18;;;;;;;2.60;2.40;;;8.20;99.90;;;;;;5041464;28;20250;-78
2024/03/14 02:07:45;;;;;;;2.63;2.42;;;8.20;99.90;;;;;;5022075;28;20217;-76
2024/03/14 02:10:13;;;;;;;2.70;2.50;;;8.20;99.90;;;;;;5049815;28;20583;-77
2024/03/14 02:12:40;;;;;;;3.33;3.03;;;8.20;99.90;;;;;;5020067;28;21015;-77
2024/03/14 02:15:07;;;;;;;2.53;2.38;;;8.20;99.90;;;;;;5021834;28;20225;-78
2024/03/14 02:17:34;;;;;;;2.60;2.40;;;8.10;99.90;;;;;;5037931;28;20755;-76
2024/03/14 02:20:01;;;;;;;2.60;2.50;;;8.10;99.90;;;;;;5023422;28;20339;-76
2024/03/14 02:22:28;;;;;;;3.53;2.97;;;8.20;99.90;;;;;;5020703;28;20265;-78
2024/03/14 02:24:55;;;;;;;2.78;2.58;;;8.10;99.90;;;;;;5050745;28;20251;-76
2024/03/14 02:27:22;;;;;;;2.47;2.38;;;8.10;99.90;;;;;;5019760;28;20218;-76
2024/03/14 02:29:49;;;;;;;2.80;2.60;;;8.10;99.90;;;;;;5018341;28;20277;-77
2024/03/14 02:32:18;;;;;;;2.80;2.55;;;8.10;99.90;;;;;;5020433;28;20244;-76
2024/03/14 02:34:45;;;;;;;2.90;2.70;;;8.10;99.90;;;;;;5020907;28;20222;-76
2024/03/14 02:37:12;;;;;;;2.88;2.67;;;8.10;99.90;;;;;;5018301;28;20301;-77
2024/03/14 02:39:39;;;;;;;2.50;2.30;;;8.00;99.90;;;;;;5020932;28;20828;-76
2024/03/14 02:42:10;;;;;;;2.88;2.67;;;7.90;99.90;;;;;;5022469;28;20239;-77
2024/03/14 02:44:37;;;;;;;2.97;2.78;;;7.90;99.90;;;;;;5020777;28;20242;-75
2024/03/14 02:47:07;;;;;;;2.85;2.65;;;7.80;99.90;;;;;;5035543;28;20218;-76
2024/03/14 02:49:34;;;;;;;2.85;2.65;;;7.80;99.90;;;;;;5018926;28;20230;-76
2024/03/14 02:52:01;;;;;;;2.80;2.60;;;7.80;99.90;;;;;;5023461;28;20246;-76
2024/03/14 02:54:30;;;;;;;2.53;2.42;;;7.70;99.90;;;;;;5022654;28;20246;-77
2024/03/14 02:56:57;;;;;;;2.85;2.65;;;7.60;99.90;;;;;;5051501;28;20230;-77
2024/03/14 02:59:24;;;;;;;2.20;2.10;;;7.60;99.90;;;;;;5020019;28;20281;-77
2024/03/14 03:01:51;;;;;;;2.90;2.70;;;7.60;99.90;;;;;;5024878;28;20972;-76
2024/03/14 03:04:19;;;;;;;2.63;2.50;;;7.60;99.90;;;;;;5021200;28;20194;-76
2024/03/14 03:06:48;;;;;;;3.05;2.85;;;7.60;99.90;;;;;;5023895;28;20317;-75
2024/03/14 03:09:16;;;;;;;2.35;2.25;;;7.60;99.90;;;;;;5041903;28;20253;-76
2024/03/14 03:11:43;;;;;;;3.45;2.72;;;7.60;99.90;;;;;;5026138;28;20902;-77
2024/03/14 03:14:10;;;;;;;2.50;2.30;;;7.60;99.90;;;;;;5030221;28;20190;-78
2024/03/14 03:16:38;;;;;;;3.05;2.83;;;7.60;99.90;;;;;;5025642;28;20261;-76
2024/03/14 03:19:05;;;;;;;2.33;2.22;;;7.60;99.90;;;;;;5018308;28;20221;-77
2024/03/14 03:21:32;;;;;;;2.72;2.40;;;7.50;99.90;;;;;;5024317;28;20226;-77
2024/03/14 03:23:58;;;;;;;2.50;2.40;;;7.50;99.90;;;;;;5021263;28;20741;-76
2024/03/14 03:26:26;;;;;;;2.50;2.40;;;7.50;99.90;;;;;;5039633;28;20257;-77
2024/03/14 03:28:52;;;;;;;2.72;2.35;;;7.40;99.90;;;;;;5037008;28;20573;-76
2024/03/14 03:31:19;;;;;;;2.47;2.28;;;7.40;99.90;;;;;;5020492;28;20238;-77
2024/03/14 03:33:45;;;;;;;2.70;2.50;;;7.30;99.90;;;;;;5022573;28;20226;-76
2024/03/14 03:36:14;;;;;;;2.55;2.35;;;7.40;99.90;;;;;;5022784;28;20276;-77
2024/03/14 03:38:41;;;;;;;2.70;2.50;;;7.30;99.90;;;;;;5022652;28;20206;-77
2024/03/14 03:41:09;;;;;;;3.30;2.17;;;7.30;99.90;;;;;;5022194;28;20226;-77
2024/03/14 03:43:35;;;;;;;2.25;2.10;;;7.40;99.90;;;;;;5041285;28;20210;-76
2024/03/14 03:46:03;;;;;;;2.28;2.13;;;7.30;99.90;;;;;;5025367;28;20214;-76
2024/03/14 03:48:29;;;;;;;2.50;2.30;;;7.30;99.90;;;;;;5053396;28;20233;-77
2024/03/14 03:50:56;;;;;;;2.50;2.40;;;7.20;99.90;;;;;;5040621;28;20745;-76
2024/03/14 03:53:22;;;;;;;2.55;2.35;;;7.10;99.90;;;;;;5024245;28;20701;-76
2024/03/14 03:55:49;;;;;;;2.55;2.30;;;7.10;99.90;;;;;;5025722;28;20284;-76
2024/03/14 03:58:15;;;;;;;2.30;2.20;;;7.10;99.90;;;;;;5023703;28;20305;-78
2024/03/14 04:00:44;;;;;;;2.05;1.92;;;7.00;99.90;;;;;;5022591;28;20215;-77
2024/03/14 04:03:11;;;;;;;2.60;2.50;;;7.00;99.90;;;;;;5026398;28;20223;-76
2024/03/14 04:05:38;;;;;;;2.47;2.30;;;7.00;99.90;;;;;;5022302;28;20221;-74
2024/03/14 04:08:05;;;;;;;2.30;2.20;;;7.00;99.90;;;;;;5027389;28;20281;-78
2024/03/14 04:10:32;;;;;;;2.33;2.22;;;7.00;99.90;;;;;;5027139;28;20222;-76
2024/03/14 04:13:00;;;;;;;2.30;2.10;;;7.00;99.90;;;;;;5038108;28;20297;-76
2024/03/14 04:15:28;;;;;;;2.20;2.10;;;7.10;99.90;;;;;;5026601;28;20223;-76
2024/03/14 04:17:55;;;;;;;2.20;2.10;;;7.10;99.90;;;;;;5040747;28;20227;-76
2024/03/14 04:20:23;;;;;;;2.20;2.10;;;7.10;99.90;;;;;;5024605;28;20227;-76
2024/03/14 04:22:53;;;;;;;2.05;1.95;;;7.10;99.90;;;;;;5021819;28;20348;-77
2024/03/14 04:25:20;;;;;;;2.00;1.90;;;7.10;99.90;;;;;;5022336;28;20214;-76
2024/03/14 04:27:51;;;;;;;2.10;2.00;;;7.10;99.90;;;;;;5037499;28;20219;-77
2024/03/14 04:30:20;;;;;;;2.03;1.92;;;7.10;99.90;;;;;;5024720;28;20253;-76
2024/03/14 04:32:47;;;;;;;2.17;2.08;;;7.10;99.90;;;;;;5023020;28;20222;-75
2024/03/14 04:35:15;;;;;;;2.20;2.10;;;7.10;99.90;;;;;;5024510;28;20312;-77
2024/03/14 04:37:42;;;;;;;1.70;1.60;;;7.00;99.90;;;;;;5023916;28;20234;-77
2024/03/14 04:40:12;;;;;;;2.03;1.92;;;7.00;99.90;;;;;;5023281;28;20297;-76
2024/03/14 04:42:40;;;;;;;2.10;2.00;;;7.00;99.90;;;;;;5022421;28;20227;-76
2024/03/14 04:45:09;;;;;;;2.20;2.10;;;7.00;99.90;;;;;;5052876;28;20238;-76
2024/03/14 04:47:36;;;;;;;1.75;1.65;;;6.90;99.90;;;;;;5022930;28;20234;-76
2024/03/14 04:50:04;;;;;;;2.00;1.90;;;6.90;99.90;;;;;;5020619;28;20300;-76
2024/03/14 04:52:31;;;;;;;2.20;2.10;;;6.90;99.90;;;;;;5021120;28;20311;-76
2024/03/14 04:54:58;;;;;;;2.33;2.22;;;6.90;99.90;;;;;;5041545;28;20276;-75
2024/03/14 04:57:25;;;;;;;2.28;2.17;;;6.90;99.90;;;;;;5030701;28;20341;-75
2024/03/14 04:59:53;;;;;;;2.40;2.30;;;6.90;99.90;;;;;;5025336;28;20553;-75
2024/03/14 05:02:20;;;;;;;1.92;1.83;;;6.90;99.90;;;;;;5023915;28;20273;-76
2024/03/14 05:04:47;;;;;;;1.90;1.80;;;6.90;99.90;;;;;;5019688;28;20247;-76
2024/03/14 05:07:14;;;;;;;2.05;1.90;;;6.90;99.90;;;;;;5040760;28;20309;-75
2024/03/14 05:09:41;;;;;;;2.20;2.10;;;6.90;99.90;;;;;;5020442;28;21826;-78
2024/03/14 05:12:08;;;;;;;2.22;2.10;;;6.80;99.90;;;;;;5020933;28;20219;-76
2024/03/14 05:14:37;;;;;;;2.63;2.42;;;6.80;99.90;;;;;;5020607;28;20253;-76
2024/03/14 05:17:04;;;;;;;1.98;1.88;;;6.70;99.90;;;;;;5035606;28;20223;-75
2024/03/14 05:19:32;;;;;;;2.20;2.10;;;6.70;99.90;;;;;;5055616;28;20230;-76
2024/03/14 05:21:59;;;;;;;2.00;1.90;;;6.70;99.90;;;;;;5021541;28;20242;-76
2024/03/14 05:24:26;;;;;;;2.53;2.42;;;6.70;99.90;;;;;;5020765;28;20257;-76
2024/03/14 05:26:54;;;;;;;2.78;2.58;;;6.60;99.90;;;;;;5020296;28;20327;-77
2024/03/14 05:29:21;;;;;;;2.40;2.30;;;6.60;99.90;;;;;;5036612;28;20238;-76
2024/03/14 05:31:48;;;;;;;2.17;2.08;;;6.50;99.90;;;;;;5023436;28;20238;-76
2024/03/14 05:34:15;;;;;;;2.55;2.45;;;6.50;99.90;;;;;;5022265;28;20227;-76
2024/03/14 05:36:42;;;;;;;2.30;2.20;;;6.50;99.90;;;;;;5021631;28;20234;-77
2024/03/14 05:39:09;;;;;;;2.55;2.45;;;6.60;99.90;;;;;;5023111;28;20199;-77
2024/03/14 05:41:36;;;;;;;2.90;2.70;;;6.60;99.90;;;;;;5022387;28;20315;-75
2024/03/14 05:44:03;;;;;;;3.22;3.03;;;6.50;99.90;;;;;;5020123;28;20210;-76
2024/03/14 05:46:30;;;;;;;2.33;2.22;;;6.50;99.90;;;;;;5038084;28;20277;-76
2024/03/14 05:48:57;;;;;;;2.58;2.42;;;6.50;99.90;;;;;;5038363;28;20277;-76
2024/03/14 05:51:24;;;;;;;2.40;2.30;;;6.50;99.90;;;;;;5037337;28;20309;-75
2024/03/14 05:53:51;;;;;;;2.47;2.38;;;6.50;99.90;;;;;;5022794;28;20234;-76
2024/03/14 05:56:18;;;;;;;2.33;2.22;;;6.60;99.90;;;;;;5023767;28;20775;-76
2024/03/14 05:58:45;;;;;;;2.00;1.90;;;6.60;99.90;;;;;;5026635;28;20757;-78
2024/03/14 06:01:13;;;;;;;2.00;1.90;;;6.70;99.90;;;;;;5026154;28;20257;-76
2024/03/14 06:03:42;;;;;;;2.33;2.22;;;6.70;99.90;;;;;;5023401;28;20203;-77
2024/03/14 06:06:10;;;;;;;1.90;1.80;;;6.70;99.90;;;;;;5020656;28;20689;-76
2024/03/14 06:08:37;;;;;;;2.15;2.05;;;6.70;99.90;;;;;;5023613;28;20207;-75
2024/03/14 06:11:04;;;;;;;3.38;3.08;;;6.80;99.90;;;;;;5021193;28;20254;-75
2024/03/14 06:13:31;;;;;;;3.20;3.00;;;6.80;99.90;;;;;;5040389;28;20199;-76
2024/03/14 06:15:58;;;;;;;3.60;3.30;;;6.80;99.90;;;;;;5037608;28;20774;-77
2024/03/14 06:18:26;;;;;;;2.53;2.30;;;6.80;99.90;;;;;;5036614;28;20311;-76
2024/03/14 06:20:54;;;;;;;2.33;2.20;;;6.80;99.90;;;;;;5019717;28;20838;-76
2024/03/14 06:23:21;;;;;;;2.75;2.55;;;6.90;99.90;;;;;;5020723;28;20222;-75
2024/03/14 06:25:48;;;;;;;2.88;2.67;;;6.90;99.90;;;;;;5041822;28;20246;-76
2024/03/14 06:28:15;;;;;;;2.28;2.17;;;7.10;99.90;;;;;;5053102;28;20315;-77
2024/03/14 06:30:42;;;;;;;2.47;2.35;;;7.60;99.90;;;;;;5022657;28;20311;-76
2024/03/14 06:33:09;;;;;;;2.60;2.50;;;8.30;99.90;;;;;;5023592;28;20230;-78
2024/03/14 06:35:36;;;;;;;2.25;2.15;;;8.90;99.90;;;;;;5041249;28;20285;-75
2024/03/14 06:38:04;;;;;;;2.28;2.17;;;9.60;99.90;;;;;;5027230;28;20301;-75
2024/03/14 06:40:31;;;;;;;2.03;1.92;;;10.10;99.90;;;;;;5019102;28;20222;-75
2024/03/14 06:42:58;;;;;;;2.22;2.00;;;10.50;99.90;;;;;;5038319;28;20242;-76
2024/03/14 06:45:25;;;;;;;2.25;2.15;;;10.90;99.90;;;;;;5025202;28;20708;-76
2024/03/14 06:47:53;;;;;;;1.90;1.80;;;11.40;99.90;;;;;;5024466;28;20285;-77
2024/03/14 06:50:20;;;;;;;1.75;1.65;;;11.80;99.90;;;;;;5021319;28;20706;-76
2024/03/14 06:52:48;;;;;;;1.60;1.50;;;12.10;99.90;;;;;;5023804;28;20324;-76
2024/03/14 06:55:15;;;;;;;1.98;1.88;;;12.40;99.90;;;;;;5023176;28;20242;-76
2024/03/14 06:57:45;;;;;;;1.90;1.80;;;12.30;99.90;;;;;;5044943;28;20249;-77
2024/03/14 07:00:16;;;;;;;1.92;1.83;;;12.30;99.90;;;;;;5039097;28;20231;-77
2024/03/14 07:02:44;;;;;;;1.70;1.60;;;12.30;99.90;;;;;;5025962;28;20219;-76
2024/03/14 07:05:14;;;;;;;1.92;1.83;;;12.60;99.90;;;;;;5024993;28;20218;-76
2024/03/14 07:07:42;;;;;;;1.95;1.85;;;12.90;99.90;;;;;;5024413;28;20296;-77
2024/03/14 07:10:13;;;;;;;3.72;1.92;;;13.30;99.90;;;;;;5024927;28;20251;-78
2024/03/14 07:12:41;;;;;;;2.33;2.13;;;13.50;99.90;;;;;;5026487;28;20222;-77
2024/03/14 07:15:08;;;;;;;2.70;1.60;;;13.50;99.90;;;;;;5025556;28;20599;-77
2024/03/14 07:17:35;;;;;;;1.90;1.80;;;13.40;99.90;;;;;;5019986;28;20599;-78
2024/03/14 07:20:09;;;;;;;4.55;2.00;;;13.50;99.90;;;;;;5042252;28;20246;-76
2024/03/14 07:22:39;;;;;;;2.13;1.92;;;13.40;99.90;;;;;;5023979;28;20226;-76
2024/03/14 07:25:08;;;;;;;3.05;1.90;;;13.50;99.90;;;;;;5026269;28;20222;-76
2024/03/14 07:27:35;;;;;;;2.42;1.73;;;13.70;99.90;;;;;;5023666;28;20296;-76
2024/03/14 07:30:04;;;;;;;1.70;1.60;;;13.70;99.90;;;;;;5025870;28;20292;-77
2024/03/14 07:32:31;;;;;;;2.05;1.95;;;13.50;99.90;;;;;;5027670;28;20233;-75
2024/03/14 07:34:58;;;;;;;2.08;1.98;;;13.40;99.90;;;;;;5042744;28;20260;-78
2024/03/14 07:37:25;;;;;;;3.33;2.28;;;13.50;99.90;;;;;;5027374;28;21127;-77
2024/03/14 07:39:52;;;;;;;2.92;1.80;;;13.60;99.90;;;;;;5027056;28;20262;-76
2024/03/14 07:42:20;;;;;;;3.72;1.83;;;13.90;99.90;;;;;;5022755;28;20709;-77
2024/03/14 07:44:47;;;;;;;2.17;1.98;;;14.20;99.90;;;;;;5025647;28;20215;-76
2024/03/14 07:47:19;;;;;;;2.75;1.70;;;14.60;99.90;;;;;;5042182;28;20260;-76
2024/03/14 07:49:48;;;;;;;2.40;2.20;;;15.10;99.90;;;;;;5026439;28;20227;-76
2024/03/14 07:52:15;;;;;;;2.90;1.63;;;15.60;99.90;;;;;;5027591;28;20225;-78
2024/03/14 07:54:44;;;;;;;2.42;1.90;;;15.90;99.90;;;;;;5027728;28;20223;-77
2024/03/14 07:57:13;;;;;;;2.13;1.90;;;15.60;99.90;;;;;;5031236;28;20227;-77
2024/03/14 07:59:41;;;;;;;1.80;1.70;;;15.20;99.90;;;;;;5024717;28;20234;-75
2024/03/14 08:02:10;;;;;;;2.20;2.00;;;14.60;99.90;;;;;;5025644;28;20305;-76
2024/03/14 08:04:37;;;;;;;6.85;1.75;;;14.10;99.90;;;;;;5026750;28;20230;-78
2024/03/14 08:07:10;;;;;;;2.00;1.90;;;13.80;99.90;;;;;;5025432;28;20214;-77
2024/03/14 08:09:38;;;;;;;2.70;1.88;;;13.60;99.90;;;;;;5037400;28;20767;-76
2024/03/14 08:12:06;;;;;;;3.58;2.03;;;13.40;99.90;;;;;;5023184;28;20406;-78
2024/03/14 08:14:34;;;;;;;1.50;1.40;;;13.40;99.90;;;;;;5029993;28;20709;-78
2024/03/14 08:17:06;;;;;;;2.25;1.83;;;13.50;99.90;;;;;;5043603;28;20281;-79
2024/03/14 08:19:34;;;;;;;1.80;1.70;;;13.80;99.90;;;;;;5022862;28;20225;-78
2024/03/14 08:22:04;;;;;;;1.70;1.60;;;14.00;99.90;;;;;;5029279;28;20234;-76
2024/03/14 08:24:42;;;;;;;1.90;1.80;;;14.10;99.90;;;;;;5027300;28;20273;-78
2024/03/14 08:27:10;;;;;;;1.80;1.70;;;13.90;99.90;;;;;;5029214;28;20218;-77
2024/03/14 08:33:04;;;;;;;1.90;1.80;;;13.70;99.90;;;;;;5117457;27;20364;-73
2024/03/14 08:35:32;;;;;;;2.15;2.05;;;13.30;99.90;;;;;;5071194;27;62930;-74
2024/03/14 08:37:59;;;;;;;2.58;2.38;;;12.90;99.90;;;;;;5052243;28;20589;-73
2024/03/14 08:40:27;;;;;;;3.50;2.05;;;12.40;99.90;;;;;;5052878;28;20279;-72
2024/03/14 08:42:54;;;;;;;3.17;2.28;;;12.20;99.90;;;;;;5055956;28;20235;-73
2024/03/14 08:45:23;;;;;;;2.97;2.03;;;12.00;99.90;;;;;;5056658;28;20301;-73
2024/03/14 08:47:51;;;;;;;3.05;1.85;;;12.10;99.90;;;;;;5040839;28;20218;-73
2024/03/14 08:50:21;;;;;;;2.17;2.05;;;12.50;99.90;;;;;;5040702;28;20703;-72
2024/03/14 08:52:48;;;;;;;2.70;1.90;;;12.50;99.90;;;;;;5050865;28;20602;-72
2024/03/14 08:55:30;;;;;;;2.28;2.08;;;12.40;99.90;;;;;;5058448;28;20221;-73
2024/03/14 08:57:59;;;;;;;2.83;2.20;;;12.40;99.90;;;;;;5051228;28;20222;-73
2024/03/14 09:00:26;;;;;;;3.47;2.33;;;12.60;99.90;;;;;;5050239;28;20536;-73
2024/03/14 09:02:53;;;;;;;2.10;2.00;;;12.80;99.90;;;;;;5065291;28;20671;-73
2024/03/14 09:05:21;;;;;;;2.60;2.00;;;12.90;99.90;;;;;;5064647;28;20299;-72
2024/03/14 09:07:48;;;;;;;3.00;2.75;;;12.90;99.90;;;;;;5068419;28;20218;-74
2024/03/14 09:10:23;;;;;;;3.97;2.33;;;12.90;99.90;;;;;;5050051;28;20316;-73
2024/03/14 09:12:50;;;;;;;2.42;2.22;;;12.80;99.90;;;;;;5071920;28;20235;-74
2024/03/14 09:15:19;;;;;;;2.13;1.70;;;12.90;99.90;;;;;;5047813;28;20535;-72
2024/03/14 09:17:46;;;;;;;1.83;1.73;;;12.90;99.90;;;;;;5033141;28;20253;-74
2024/03/14 09:20:16;;;;;;;2.35;2.15;;;12.90;99.90;;;;;;5061197;28;20217;-72
2024/03/14 09:22:44;;;;;;;2.00;1.90;;;13.00;99.90;;;;;;5064387;28;20621;-73
2024/03/14 09:25:14;;;;;;;2.15;1.83;;;13.10;99.90;;;;;;5050546;28;20242;-72
2024/03/14 09:27:42;;;;;;;2.42;2.28;;;13.10;99.90;;;;;;5048064;28;20260;-73
2024/03/14 09:30:09;;;;;;;2.38;2.17;;;13.20;99.90;;;;;;5044491;28;20230;-73
2024/03/14 09:32:37;;;;;;;2.30;2.00;;;13.40;99.90;;;;;;5033449;28;20726;-74
2024/03/14 09:35:07;;;;;;;2.90;2.40;;;13.60;99.90;;;;;;5020296;28;20215;-74
2024/03/14 09:37:34;;;;;;;3.13;2.17;;;13.70;99.90;;;;;;5032967;28;20228;-73
2024/03/14 09:40:05;;;;;;;2.53;2.33;;;13.80;99.90;;;;;;5041816;28;20248;-72
2024/03/14 09:42:33;;;;;;;2.15;1.95;;;13.80;99.90;;;;;;5046580;28;20221;-73
2024/03/14 09:45:01;;;;;;;3.17;2.22;;;14.00;99.90;;;;;;5034024;28;20227;-73
2024/03/14 09:47:30;;;;;;;2.00;1.90;;;14.20;99.90;;;;;;5025017;28;20332;-74
2024/03/14 09:49:57;;;;;;;2.45;1.73;;;14.40;99.90;;;;;;5033787;28;20318;-74
2024/03/14 09:52:25;;;;;;;2.90;2.00;;;14.50;99.90;;;;;;5044271;28;20280;-73
2024/03/14 09:54:52;;;;;;;2.50;1.83;;;14.50;99.90;;;;;;5040042;28;20648;-72
2024/03/14 09:57:19;;;;;;;1.90;1.80;;;14.40;99.90;;;;;;5054118;28;20647;-72
2024/03/14 09:59:46;;;;;;;2.00;1.90;;;14.40;99.90;;;;;;5038384;28;20603;-73
2024/03/14 10:02:14;;;;;;;2.03;1.60;;;14.10;99.90;;;;;;5023561;28;20242;-74
2024/03/14 10:04:43;;;;;;;1.83;1.73;;;14.10;99.90;;;;;;5034986;28;20644;-72
2024/03/14 10:07:10;;;;;;;2.42;2.22;;;13.90;99.90;;;;;;5036505;28;20705;-73
2024/03/14 10:09:38;;;;;;;2.47;1.80;;;13.90;99.90;;;;;;5019997;28;20215;-73
2024/03/14 10:12:06;;;;;;;2.50;1.90;;;13.90;99.90;;;;;;5035213;28;20731;-72
2024/03/14 10:14:36;;;;;;;1.77;1.67;;;13.90;99.90;;;;;;5020352;28;20409;-72
2024/03/14 10:17:04;;;;;;;1.70;1.60;;;14.00;99.90;;;;;;5022362;28;20288;-73
2024/03/14 10:19:35;;;;;;;1.80;1.70;;;14.10;99.90;;;;;;5019053;28;20230;-73
2024/03/14 10:22:03;;;;;;;3.00;1.80;;;14.10;99.90;;;;;;5020643;28;20776;-72
2024/03/14 10:24:31;;;;;;;1.67;1.48;;;14.10;99.90;;;;;;5031651;28;20719;-73
2024/03/14 10:26:59;;;;;;;1.77;1.67;;;13.90;99.90;;;;;;5002997;28;20223;-72
2024/03/14 10:29:29;;;;;;;1.75;1.52;;;13.90;99.90;;;;;;5016552;28;20326;-73
2024/03/14 10:31:56;;;;;;;1.88;1.70;;;13.80;99.90;;;;;;5019360;28;20251;-73
2024/03/14 10:34:24;;;;;;;1.98;1.88;;;13.70;99.90;;;;;;5022347;28;20281;-73
2024/03/14 10:36:52;;;;;;;1.70;1.60;;;13.70;99.90;;;;;;5038834;28;20762;-73
2024/03/14 10:39:20;;;;;;;1.65;1.55;;;13.60;99.90;;;;;;5025869;28;20219;-72
2024/03/14 10:41:48;;;;;;;1.90;1.48;;;13.60;99.90;;;;;;5057772;28;20210;-73
2024/03/14 10:44:16;;;;;;;1.70;1.60;;;13.70;99.90;;;;;;5050317;28;20234;-72
2024/03/14 10:46:44;;;;;;;1.88;1.58;;;13.60;99.90;;;;;;5057742;28;20222;-73
2024/03/14 10:49:12;;;;;;;1.70;1.60;;;13.70;99.90;;;;;;5036172;28;20215;-73
2024/03/14 10:51:39;;;;;;;1.48;1.38;;;13.80;99.90;;;;;;5033897;28;20321;-72
2024/03/14 10:54:07;;;;;;;1.60;1.50;;;13.80;99.90;;;;;;5036067;28;20292;-72
2024/03/14 10:56:35;;;;;;;1.70;1.60;;;13.90;99.90;;;;;;5034722;28;20276;-73
2024/03/14 10:59:04;;;;;;;1.50;1.40;;;14.10;99.90;;;;;;5052871;28;20230;-73
2024/03/14 11:01:31;;;;;;;1.90;1.60;;;14.20;99.90;;;;;;5057211;28;20271;-72
2024/03/14 11:03:58;;;;;;;1.60;1.50;;;14.30;99.90;;;;;;5050317;28;20254;-72
2024/03/14 11:06:25;;;;;;;1.80;1.70;;;14.30;99.90;;;;;;5052232;28;20250;-73
2024/03/14 11:08:53;;;;;;;1.85;1.63;;;14.50;99.90;;;;;;5052986;28;20271;-72
2024/03/14 11:11:20;;;;;;;1.70;1.60;;;14.60;99.90;;;;;;5050234;28;20238;-72
2024/03/14 11:13:50;;;;;;;4.00;1.60;;;14.80;99.90;;;;;;5037378;28;20215;-73
2024/03/14 11:16:17;;;;;;;1.42;1.33;;;14.90;99.90;;;;;;5051629;28;20218;-72
2024/03/14 11:18:45;;;;;;;1.35;1.25;;;15.10;99.90;;;;;;5031040;28;20227;-73
2024/03/14 11:21:12;;;;;;;1.73;1.63;;;15.20;99.90;;;;;;5017895;28;20708;-72
2024/03/14 11:23:40;;;;;;;1.60;1.50;;;15.30;99.90;;;;;;5038277;28;20198;-73
2024/03/14 11:26:07;;;;;;;1.70;1.60;;;15.50;99.90;;;;;;5040753;28;20219;-72
2024/03/14 11:28:36;;;;;;;1.65;1.55;;;15.80;99.90;;;;;;5039309;28;20597;-72
2024/03/14 11:31:04;;;;;;;2.80;1.60;;;15.90;99.90;;;;;;5043177;28;20678;-72
2024/03/14 11:33:32;;;;;;;3.03;1.95;;;15.90;99.90;;;;;;5039840;28;20244;-72
2024/03/14 11:35:59;;;;;;;1.63;1.52;;;16.10;99.90;;;;;;5056406;28;20254;-73
2024/03/14 11:38:28;;;;;;;2.30;1.55;;;16.00;99.90;;;;;;5052148;28;20363;-72
2024/03/14 11:40:55;;;;;;;1.70;1.60;;;15.90;99.90;;;;;;5055339;28;20587;-72
2024/03/14 11:43:23;;;;;;;1.30;1.30;;;15.80;99.90;;;;;;5053967;28;20671;-72
2024/03/14 11:46:02;;;;;;;1.60;1.50;;;15.70;99.90;;;;;;5038511;28;20226;-73
2024/03/14 11:48:29;;;;;;;1.55;1.40;;;15.80;99.90;;;;;;5041965;28;20213;-72
2024/03/14 11:50:58;;;;;;;2.58;1.10;;;15.80;99.90;;;;;;5052764;28;20222;-73
2024/03/14 11:53:25;;;;;;;1.33;1.10;;;15.80;99.90;;;;;;5036294;28;20221;-73
2024/03/14 11:55:53;;;;;;;1.48;1.38;;;16.00;99.90;;;;;;5031569;28;20303;-72
2024/03/14 11:58:21;;;;;;;1.40;1.30;;;16.10;99.90;;;;;;5058543;28;20226;-73
2024/03/14 12:00:48;;;;;;;1.45;1.35;;;16.00;99.90;;;;;;5034837;28;20222;-73
2024/03/14 12:03:16;;;;;;;1.45;1.35;;;16.10;99.90;;;;;;5023798;28;20708;-74
2024/03/14 12:05:44;;;;;;;2.47;1.42;;;16.20;99.90;;;;;;5046985;28;20241;-74
2024/03/14 12:08:12;;;;;;;1.58;1.30;;;16.20;99.90;;;;;;5030757;28;81325;-74
2024/03/14 12:10:40;;;;;;;2.25;1.15;;;16.20;99.90;;;;;;5009458;28;20257;-74
2024/03/14 12:13:16;;;;;;;2.95;1.50;;;16.30;99.90;;;;;;5024032;28;20234;-73
2024/03/14 12:15:44;;;;;;;1.40;1.30;;;16.20;99.90;;;;;;5016546;28;20286;-72
2024/03/14 12:18:11;;;;;;;1.52;1.38;;;16.20;99.90;;;;;;5015337;28;20375;-73
2024/03/14 12:20:38;;;;;;;1.60;1.50;;;16.30;99.90;;;;;;5009175;28;20591;-72
2024/03/14 12:23:08;;;;;;;1.30;1.20;;;16.30;99.90;;;;;;5054723;28;20292;-73
2024/03/14 12:25:38;;;;;;;1.52;1.20;;;16.30;99.90;;;;;;5042271;28;20240;-73
2024/03/14 12:28:06;;;;;;;1.40;1.30;;;16.10;99.90;;;;;;5051633;28;20222;-72
2024/03/14 12:30:37;;;;;;;1.20;1.17;;;16.20;99.90;;;;;;5052813;28;20221;-72
2024/03/14 12:33:06;;;;;;;1.40;1.30;;;16.30;99.90;;;;;;5056477;28;20792;-73
2024/03/14 12:35:34;;;;;;;1.10;1.10;;;16.40;99.90;;;;;;5052748;28;20229;-73
2024/03/14 12:38:01;;;;;;;1.10;1.00;;;16.60;99.90;;;;;;5053055;28;20838;-71
2024/03/14 12:40:29;;;;;;;1.45;1.35;;;16.90;99.90;;;;;;5051324;28;20728;-72
2024/03/14 12:42:57;;;;;;;1.38;1.23;;;16.90;99.90;;;;;;5055748;28;20229;-74
2024/03/14 12:45:24;;;;;;;1.40;1.30;;;16.90;99.90;;;;;;5035653;28;20217;-73
2024/03/14 12:47:54;;;;;;;1.13;1.10;;;17.10;99.90;;;;;;5056588;28;20773;-72
2024/03/14 12:50:22;;;;;;;1.70;1.23;;;17.00;99.90;;;;;;5048799;28;20830;-73
2024/03/14 12:53:05;;;;;;;1.10;1.10;;;16.90;99.90;;;;;;5052753;28;20217;-72
2024/03/14 12:55:33;;;;;;;1.35;1.25;;;17.00;99.90;;;;;;5002925;28;20215;-73
2024/03/14 12:58:01;;;;;;;1.13;1.02;;;17.20;99.90;;;;;;5030704;28;20307;-73
2024/03/14 13:00:29;;;;;;;1.00;1.00;;;17.30;99.90;;;;;;5022322;28;20221;-73